createdAt,value
2019-03-26T00:01:20.741Z,1.97
2019-03-26T00:03:50.600Z,2.01
2019-03-26T00:06:20.377Z,2.01
2019-03-26T00:08:50.121Z,1.92
2019-03-26T00:11:19.994Z,1.92
2019-03-26T00:13:49.847Z,1.93
2019-03-26T00:16:19.620Z,1.88
2019-03-26T00:18:49.375Z,1.91
2019-03-26T00:21:19.147Z,1.89
2019-03-26T00:23:48.898Z,1.93
2019-03-26T00:26:18.663Z,1.91
2019-03-26T00:28:48.412Z,1.77
2019-03-26T00:31:18.191Z,1.71
2019-03-26T00:33:47.982Z,1.76
2019-03-26T00:36:17.882Z,1.78
2019-03-26T00:38:48.087Z,1.83
2019-03-26T00:41:17.910Z,1.88
2019-03-26T00:43:47.878Z,1.86
2019-03-26T00:46:17.758Z,1.84
2019-03-26T00:48:47.622Z,1.86
2019-03-26T00:51:17.400Z,1.90
2019-03-26T00:53:47.149Z,1.96
2019-03-26T00:56:16.944Z,1.78
2019-03-26T00:58:46.682Z,1.83
2019-03-26T01:01:16.667Z,1.75
2019-03-26T01:03:46.511Z,1.83
2019-03-26T01:06:16.291Z,1.89
2019-03-26T01:08:46.034Z,1.93
2019-03-26T01:11:15.912Z,1.96
2019-03-26T01:13:45.669Z,2.03
2019-03-26T01:16:15.438Z,2.12
2019-03-26T01:18:46.194Z,2.19
2019-03-26T01:21:16.177Z,2.20
2019-03-26T01:23:46.034Z,2.22
2019-03-26T01:26:15.810Z,2.23
2019-03-26T01:28:45.667Z,2.26
2019-03-26T01:31:15.642Z,2.19
2019-03-26T01:33:45.419Z,2.14
2019-03-26T01:36:15.183Z,2.13
2019-03-26T01:38:45.194Z,2.11
2019-03-26T01:41:15.018Z,2.18
2019-03-26T01:43:44.766Z,2.21
2019-03-26T01:46:14.549Z,2.16
2019-03-26T01:48:44.292Z,2.15
2019-03-26T01:51:14.070Z,2.16
2019-03-26T01:53:43.949Z,2.19
2019-03-26T01:56:13.746Z,2.15
2019-03-26T01:58:43.614Z,2.12
2019-03-26T02:01:13.589Z,2.13
2019-03-26T02:03:43.354Z,2.06
2019-03-26T02:06:13.118Z,2.07
2019-03-26T02:08:42.901Z,2.03
2019-03-26T02:11:12.671Z,1.98
2019-03-26T02:13:42.534Z,1.94
2019-03-26T02:16:12.386Z,1.89
2019-03-26T02:18:42.365Z,1.91
2019-03-26T02:21:12.110Z,1.78
2019-03-26T02:23:41.922Z,1.78
2019-03-26T02:26:11.687Z,1.85
2019-03-26T02:28:41.561Z,1.72
2019-03-26T02:31:11.507Z,1.71
2019-03-26T02:33:41.309Z,1.69
2019-03-26T02:36:11.072Z,1.68
2019-03-26T02:38:40.855Z,1.67
2019-03-26T02:41:10.605Z,1.61
2019-03-26T02:43:40.368Z,1.62
2019-03-26T02:46:10.117Z,1.59
2019-03-26T02:48:39.905Z,1.62
2019-03-26T02:51:09.662Z,1.57
2019-03-26T02:53:39.522Z,1.54
2019-03-26T02:56:09.467Z,1.52
2019-03-26T02:58:39.327Z,1.56
2019-03-26T03:01:09.077Z,1.51
2019-03-26T03:03:38.889Z,1.55
2019-03-26T03:06:08.628Z,1.55
2019-03-26T03:08:38.589Z,1.54
2019-03-26T03:11:08.356Z,1.45
2019-03-26T03:13:38.146Z,1.60
2019-03-26T03:16:07.870Z,1.46
2019-03-26T03:18:37.640Z,1.56
2019-03-26T03:21:07.412Z,1.63
2019-03-26T03:23:37.191Z,1.74
2019-03-26T03:26:06.960Z,1.84
2019-03-26T03:28:36.865Z,1.91
2019-03-26T03:31:07.045Z,1.93
2019-03-26T03:33:36.934Z,1.99
2019-03-26T03:36:06.770Z,1.98
2019-03-26T03:38:36.546Z,1.99
2019-03-26T03:41:06.800Z,1.86
2019-03-26T03:43:36.597Z,1.88
2019-03-26T03:46:06.439Z,1.92
2019-03-26T03:48:37.121Z,1.81
2019-03-26T03:51:08.440Z,1.80
2019-03-26T03:53:38.549Z,1.80
2019-03-26T03:56:11.460Z,1.91
2019-03-26T03:58:44.126Z,1.91
2019-03-26T04:01:13.875Z,1.86
2019-03-26T04:03:43.649Z,1.91
2019-03-26T04:06:13.505Z,1.90
2019-03-26T04:08:43.276Z,1.90
2019-03-26T04:11:13.128Z,1.73
2019-03-26T04:13:42.894Z,1.78
2019-03-26T04:16:12.638Z,1.60
2019-03-26T04:18:42.522Z,1.61
2019-03-26T04:21:12.282Z,1.74
2019-03-26T04:23:42.168Z,1.72
2019-03-26T04:26:11.921Z,1.63
2019-03-26T04:28:41.815Z,1.69
2019-03-26T04:31:11.705Z,1.79
2019-03-26T04:33:41.603Z,1.86
2019-03-26T04:36:24.505Z,1.65
2019-03-26T04:38:43.104Z,1.68
2019-03-26T04:41:12.931Z,1.60
2019-03-26T04:43:42.933Z,1.63
2019-03-26T04:46:12.673Z,1.62
2019-03-26T04:48:42.564Z,1.59
2019-03-26T04:51:12.735Z,1.61
2019-03-26T04:53:42.515Z,1.69
2019-03-26T04:56:12.461Z,1.69
2019-03-26T04:58:43.977Z,1.72
2019-03-26T05:01:13.970Z,1.73
2019-03-26T05:03:43.844Z,1.85
2019-03-26T05:06:13.704Z,1.82
2019-03-26T05:08:43.707Z,1.83
2019-03-26T05:11:13.466Z,1.69
2019-03-26T05:13:43.240Z,1.70
2019-03-26T05:16:13.140Z,1.65
2019-03-26T05:18:42.929Z,1.73
2019-03-26T05:21:12.711Z,1.75
2019-03-26T05:23:42.499Z,1.75
2019-03-26T05:26:12.254Z,1.86
2019-03-26T05:28:42.043Z,1.95
2019-03-26T05:31:12.023Z,2.11
2019-03-26T05:33:41.829Z,2.03
2019-03-26T05:36:11.586Z,2.00
2019-03-26T05:38:41.394Z,2.01
2019-03-26T05:41:11.265Z,2.11
2019-03-26T05:43:41.253Z,1.95
2019-03-26T05:46:11.108Z,1.92
2019-03-26T05:48:40.907Z,1.89
2019-03-26T05:51:10.662Z,2.00
2019-03-26T05:53:40.456Z,2.13
2019-03-26T05:56:10.420Z,2.08
2019-03-26T05:58:40.217Z,1.96
2019-03-26T06:01:09.983Z,2.02
2019-03-26T06:03:39.803Z,2.04
2019-03-26T06:06:09.624Z,2.05
2019-03-26T06:08:39.376Z,2.10
2019-03-26T06:11:09.269Z,2.13
2019-03-26T06:13:39.034Z,2.14
2019-03-26T06:16:08.927Z,2.11
2019-03-26T06:18:38.828Z,2.24
2019-03-26T06:21:09.328Z,2.48
2019-03-26T06:23:39.136Z,2.52
2019-03-26T06:26:09.236Z,2.75
2019-03-26T06:28:38.992Z,2.78
2019-03-26T06:31:08.794Z,2.75
2019-03-26T06:33:38.611Z,2.85
2019-03-26T06:36:08.419Z,2.88
2019-03-26T06:38:38.309Z,2.85
2019-03-26T06:41:08.083Z,2.84
2019-03-26T06:43:37.988Z,2.85
2019-03-26T06:46:07.885Z,2.76
2019-03-26T06:48:37.830Z,2.75
2019-03-26T06:51:07.737Z,2.61
2019-03-26T06:53:37.689Z,2.56
2019-03-26T06:56:07.565Z,2.69
2019-03-26T06:58:37.422Z,2.91
2019-03-26T07:01:07.537Z,3.12
2019-03-26T07:03:37.325Z,2.96
2019-03-26T07:06:07.130Z,2.97
2019-03-26T07:08:37.035Z,3.00
2019-03-26T07:11:07.030Z,3.12
2019-03-26T07:13:36.796Z,3.17
2019-03-26T07:16:06.659Z,3.38
2019-03-26T07:18:36.423Z,3.70
2019-03-26T07:21:06.208Z,3.65
2019-03-26T07:23:36.176Z,3.81
2019-03-26T07:26:06.001Z,4.22
2019-03-26T07:28:35.775Z,4.70
2019-03-26T07:31:05.676Z,5.06
2019-03-26T07:33:35.872Z,4.89
2019-03-26T07:36:05.685Z,5.29
2019-03-26T07:38:36.524Z,4.92
2019-03-26T07:41:06.399Z,4.71
2019-03-26T07:43:36.313Z,5.48
2019-03-26T07:46:06.208Z,5.62
2019-03-26T07:48:35.995Z,5.28
2019-03-26T07:51:05.782Z,5.72
2019-03-26T07:53:35.572Z,6.19
2019-03-26T07:56:05.333Z,6.86
2019-03-26T07:58:35.421Z,7.00
2019-03-26T08:01:05.242Z,6.62
2019-03-26T08:03:35.028Z,6.45
2019-03-26T08:06:04.845Z,7.09
2019-03-26T08:08:34.607Z,7.40
2019-03-26T08:11:04.416Z,6.87
2019-03-26T08:13:34.217Z,7.41
2019-03-26T08:16:03.980Z,7.93
2019-03-26T08:18:33.875Z,7.45
2019-03-26T08:21:03.667Z,7.56
2019-03-26T08:23:33.516Z,7.11
2019-03-26T08:26:03.294Z,6.62
2019-03-26T08:28:33.041Z,7.25
2019-03-26T08:31:02.833Z,7.90
2019-03-26T08:33:32.645Z,8.16
2019-03-26T08:36:02.442Z,7.91
2019-03-26T08:38:33.600Z,7.59
2019-03-26T08:41:03.663Z,6.78
2019-03-26T08:43:33.426Z,6.86
2019-03-26T08:46:03.219Z,6.65
2019-03-26T08:48:32.958Z,8.16
2019-03-26T08:51:02.758Z,9.55
2019-03-26T08:53:32.514Z,9.11
2019-03-26T08:56:02.308Z,9.14
2019-03-26T08:58:32.073Z,9.88
2019-03-26T09:01:01.852Z,9.39
2019-03-26T09:03:31.623Z,10.43
2019-03-26T09:06:01.408Z,11.70
2019-03-26T09:08:31.170Z,11.74
2019-03-26T09:11:00.988Z,11.01
2019-03-26T09:13:30.728Z,12.44
2019-03-26T09:16:00.848Z,13.73
2019-03-26T09:18:30.602Z,15.55
2019-03-26T09:21:00.382Z,15.55
2019-03-26T09:23:30.176Z,14.15
2019-03-26T09:25:59.947Z,15.04
2019-03-26T09:28:29.728Z,15.12
2019-03-26T09:30:59.489Z,13.35
2019-03-26T09:33:29.271Z,11.86
2019-03-26T09:35:59.028Z,11.00
2019-03-26T09:38:38.258Z,11.31
2019-03-26T09:41:00.295Z,11.29
2019-03-26T09:43:30.176Z,11.08
2019-03-26T09:46:00.059Z,10.61
2019-03-26T09:48:29.843Z,11.41
2019-03-26T09:50:59.600Z,11.92
2019-03-26T09:53:29.418Z,12.29
2019-03-26T09:55:59.179Z,12.85
2019-03-26T09:58:28.984Z,13.30
2019-03-26T10:00:58.746Z,12.96
2019-03-26T10:03:28.559Z,14.02
2019-03-26T10:05:58.544Z,13.95
2019-03-26T10:08:28.435Z,12.85
2019-03-26T10:10:58.303Z,13.76
2019-03-26T10:13:28.301Z,16.08
2019-03-26T10:15:58.097Z,18.92
2019-03-26T10:18:27.907Z,19.61
2019-03-26T10:20:57.678Z,20.31
2019-03-26T10:23:27.574Z,20.88
2019-03-26T10:25:57.353Z,21.75
2019-03-26T10:28:27.240Z,22.45
2019-03-26T10:30:57.015Z,23.24
2019-03-26T10:33:26.832Z,22.66
2019-03-26T10:35:56.803Z,20.79
2019-03-26T10:38:26.620Z,17.91
2019-03-26T10:40:56.491Z,17.60
2019-03-26T10:43:26.282Z,17.09
2019-03-26T10:45:56.153Z,17.41
2019-03-26T10:48:25.963Z,19.65
2019-03-26T10:50:55.723Z,19.01
2019-03-26T10:53:25.535Z,17.87
2019-03-26T10:55:55.380Z,17.55
2019-03-26T10:58:25.289Z,17.15
2019-03-26T11:00:55.151Z,17.99
2019-03-26T11:03:24.949Z,19.23
2019-03-26T11:05:54.795Z,18.97
2019-03-26T11:08:26.018Z,16.21
2019-03-26T11:10:55.775Z,14.76
2019-03-26T11:13:25.572Z,14.14
2019-03-26T11:15:55.535Z,12.94
2019-03-26T11:18:25.436Z,11.59
2019-03-26T11:21:02.755Z,11.47
2019-03-26T11:23:26.823Z,11.13
2019-03-26T11:25:56.586Z,10.66
2019-03-26T11:28:26.366Z,10.75
2019-03-26T11:30:56.231Z,10.88
2019-03-26T11:33:26.115Z,10.80
2019-03-26T11:35:56.067Z,10.67
2019-03-26T11:38:25.961Z,10.42
2019-03-26T11:40:55.715Z,10.24
2019-03-26T11:43:25.594Z,10.09
2019-03-26T11:45:55.569Z,9.95
2019-03-26T11:48:25.388Z,9.84
2019-03-26T11:50:55.133Z,9.75
2019-03-26T11:53:25.013Z,9.50
2019-03-26T11:55:54.976Z,9.84
2019-03-26T11:58:30.407Z,10.01
2019-03-26T12:00:56.437Z,9.91
2019-03-26T12:03:26.443Z,9.89
2019-03-26T12:05:56.182Z,9.87
2019-03-26T12:08:25.957Z,9.74
2019-03-26T12:10:55.709Z,9.96
2019-03-26T12:13:25.584Z,10.01
2019-03-26T12:15:55.372Z,10.45
2019-03-26T12:18:25.285Z,11.52
2019-03-26T12:20:55.062Z,12.04
2019-03-26T12:23:25.048Z,11.58
2019-03-26T12:25:54.996Z,11.40
2019-03-26T12:28:24.880Z,10.47
2019-03-26T12:30:54.753Z,10.43
2019-03-26T12:33:24.495Z,10.47
2019-03-26T12:35:54.355Z,10.64
2019-03-26T12:38:24.746Z,10.81
2019-03-26T12:40:54.608Z,11.43
2019-03-26T12:43:24.587Z,13.02
2019-03-26T12:45:54.568Z,12.73
2019-03-26T12:48:24.342Z,12.48
2019-03-26T12:50:54.118Z,12.25
2019-03-26T12:53:23.999Z,12.03
2019-03-26T12:55:53.976Z,11.54
2019-03-26T12:58:31.768Z,10.71
2019-03-26T13:00:55.449Z,10.70
2019-03-26T13:03:25.326Z,10.90
2019-03-26T13:05:55.300Z,11.41
2019-03-26T13:08:25.162Z,12.31
2019-03-26T13:10:54.965Z,11.65
2019-03-26T13:13:24.749Z,11.33
2019-03-26T13:15:54.518Z,11.08
2019-03-26T13:18:24.346Z,10.67
2019-03-26T13:20:54.112Z,10.86
2019-03-26T13:23:23.964Z,10.90
2019-03-26T13:25:53.969Z,11.30
2019-03-26T13:28:23.824Z,11.59
2019-03-26T13:30:53.711Z,11.78
2019-03-26T13:33:23.491Z,11.90
2019-03-26T13:35:53.597Z,12.69
2019-03-26T13:38:23.450Z,13.37
2019-03-26T13:40:53.217Z,13.33
2019-03-26T13:43:23.103Z,12.14
2019-03-26T13:45:52.898Z,11.76
2019-03-26T13:48:22.652Z,12.26
2019-03-26T13:50:52.536Z,12.66
2019-03-26T13:53:22.603Z,12.18
2019-03-26T13:55:52.484Z,13.01
2019-03-26T13:58:22.349Z,13.16
2019-03-26T14:00:52.181Z,13.03
2019-03-26T14:03:21.942Z,13.39
2019-03-26T14:05:51.728Z,13.58
2019-03-26T14:08:21.595Z,12.78
2019-03-26T14:10:51.376Z,13.47
2019-03-26T14:13:21.239Z,13.44
2019-03-26T14:15:51.257Z,12.62
2019-03-26T14:18:21.008Z,12.94
2019-03-26T14:20:50.914Z,13.74
2019-03-26T14:23:20.674Z,13.87
2019-03-26T14:25:50.668Z,13.18
2019-03-26T14:28:20.435Z,12.92
2019-03-26T14:30:50.207Z,13.02
2019-03-26T14:33:19.966Z,12.46
2019-03-26T14:35:49.849Z,12.24
2019-03-26T14:38:19.788Z,11.78
2019-03-26T14:40:55.229Z,11.38
2019-03-26T14:43:21.048Z,11.09
2019-03-26T14:45:50.828Z,10.98
2019-03-26T14:48:20.595Z,10.98
2019-03-26T14:50:50.392Z,11.06
2019-03-26T14:53:20.299Z,11.32
2019-03-26T14:55:50.092Z,12.18
2019-03-26T14:58:19.862Z,12.45
2019-03-26T15:00:49.655Z,11.56
2019-03-26T15:03:19.436Z,11.40
2019-03-26T15:05:49.210Z,10.95
2019-03-26T15:08:19.165Z,10.83
2019-03-26T15:10:48.962Z,10.93
2019-03-26T15:13:18.720Z,10.78
2019-03-26T15:15:48.524Z,10.70
2019-03-26T15:18:18.379Z,10.42
2019-03-26T15:20:48.368Z,10.23
2019-03-26T15:23:18.224Z,9.84
2019-03-26T15:25:48.213Z,9.81
2019-03-26T15:28:18.272Z,9.98
2019-03-26T15:30:48.066Z,10.04
2019-03-26T15:33:17.821Z,9.83
2019-03-26T15:35:47.613Z,9.57
2019-03-26T15:38:17.576Z,9.54
2019-03-26T15:40:47.476Z,9.43
2019-03-26T15:43:17.344Z,9.44
2019-03-26T15:45:47.096Z,9.48
2019-03-26T15:48:16.979Z,9.50
2019-03-26T15:50:47.358Z,9.56
2019-03-26T15:53:17.163Z,9.51
2019-03-26T15:55:47.091Z,9.44
2019-03-26T15:58:17.169Z,9.49
2019-03-26T16:00:46.944Z,9.35
2019-03-26T16:03:16.925Z,8.83
2019-03-26T16:05:46.775Z,8.65
2019-03-26T16:08:16.551Z,8.63
2019-03-26T16:10:46.331Z,8.82
2019-03-26T16:13:16.135Z,8.86
2019-03-26T16:15:46.020Z,8.86
2019-03-26T16:18:15.901Z,9.00
2019-03-26T16:20:45.861Z,9.11
2019-03-26T16:23:15.736Z,9.07
2019-03-26T16:25:45.700Z,9.13
2019-03-26T16:28:15.494Z,9.15
2019-03-26T16:30:46.019Z,9.09
2019-03-26T16:33:15.919Z,8.99
2019-03-26T16:35:45.684Z,8.85
2019-03-26T16:38:15.471Z,8.82
2019-03-26T16:40:45.506Z,8.82
2019-03-26T16:43:15.346Z,8.73
2019-03-26T16:45:45.136Z,8.74
2019-03-26T16:48:15.412Z,9.19
2019-03-26T16:50:45.174Z,9.60
2019-03-26T16:53:15.211Z,9.85
2019-03-26T16:55:45.107Z,9.77
2019-03-26T16:58:15.107Z,9.50
2019-03-26T17:00:44.858Z,9.36
2019-03-26T17:03:15.680Z,9.21
2019-03-26T17:05:45.537Z,8.95
2019-03-26T17:08:15.744Z,8.74
2019-03-26T17:10:48.495Z,8.49
2019-03-26T17:13:17.178Z,8.18
2019-03-26T17:15:46.931Z,8.07
2019-03-26T17:18:16.720Z,7.98
2019-03-26T17:20:46.595Z,7.69
2019-03-26T17:23:16.686Z,7.57
2019-03-26T17:25:46.477Z,7.42
2019-03-26T17:28:16.261Z,7.39
2019-03-26T17:30:46.067Z,7.29
2019-03-26T17:33:16.132Z,7.26
2019-03-26T17:35:46.295Z,7.27
2019-03-26T17:38:16.101Z,7.23
2019-03-26T17:40:45.885Z,7.24
2019-03-26T17:43:15.679Z,7.25
2019-03-26T17:45:45.747Z,7.26
2019-03-26T17:48:15.526Z,7.25
2019-03-26T17:50:45.490Z,7.27
2019-03-26T17:53:15.327Z,7.32
2019-03-26T17:55:45.068Z,7.33
2019-03-26T17:58:14.898Z,7.34
2019-03-26T18:00:46.729Z,7.37
2019-03-26T18:03:26.441Z,7.41
2019-03-26T18:05:48.364Z,7.35
2019-03-26T18:08:18.467Z,7.39
2019-03-26T18:10:48.442Z,7.46
2019-03-26T18:13:18.247Z,7.43
2019-03-26T18:15:48.011Z,7.44
2019-03-26T18:18:17.873Z,7.50
2019-03-26T18:20:47.761Z,7.40
2019-03-26T18:23:17.657Z,7.38
2019-03-26T18:25:47.511Z,7.33
2019-03-26T18:28:17.682Z,7.24
2019-03-26T18:30:48.520Z,7.19
2019-03-26T18:33:19.516Z,7.14
2019-03-26T18:35:49.328Z,7.06
2019-03-26T18:38:19.230Z,7.02
2019-03-26T18:40:49.026Z,7.11
2019-03-26T18:43:19.024Z,7.05
2019-03-26T18:45:48.785Z,7.10
2019-03-26T18:48:18.567Z,7.11
2019-03-26T18:50:48.322Z,7.14
2019-03-26T18:53:18.243Z,7.06
2019-03-26T18:55:48.108Z,7.01
2019-03-26T18:58:18.008Z,6.98
2019-03-26T19:00:47.753Z,7.03
2019-03-26T19:03:17.631Z,7.00
2019-03-26T19:05:47.612Z,7.09
2019-03-26T19:08:17.506Z,6.96
2019-03-26T19:10:47.378Z,6.99
2019-03-26T19:13:19.843Z,6.96
2019-03-26T19:15:48.868Z,6.88
2019-03-26T19:18:18.681Z,6.95
2019-03-26T19:21:00.955Z,6.99
2019-03-26T19:23:20.039Z,6.95
2019-03-26T19:25:49.798Z,6.95
2019-03-26T19:28:19.918Z,6.90
2019-03-26T19:30:49.700Z,6.92
2019-03-26T19:33:19.466Z,6.92
2019-03-26T19:35:49.253Z,6.93
2019-03-26T19:38:19.021Z,6.90
2019-03-26T19:40:48.826Z,6.90
2019-03-26T19:43:18.708Z,6.87
2019-03-26T19:45:48.564Z,6.85
2019-03-26T19:48:18.339Z,6.90
2019-03-26T19:50:48.110Z,6.91
2019-03-26T19:53:17.891Z,6.83
2019-03-26T19:55:47.682Z,6.79
2019-03-26T19:58:17.453Z,6.65
2019-03-26T20:00:47.341Z,6.62
2019-03-26T20:03:17.208Z,6.62
2019-03-26T20:05:47.024Z,6.63
2019-03-26T20:08:16.793Z,6.56
2019-03-26T20:10:46.578Z,6.54
2019-03-26T20:13:24.218Z,6.58
2019-03-26T20:15:47.991Z,6.58
2019-03-26T20:18:17.753Z,6.61
2019-03-26T20:20:47.524Z,6.45
2019-03-26T20:23:17.390Z,6.49
2019-03-26T20:25:47.378Z,6.52
2019-03-26T20:28:17.243Z,6.43
2019-03-26T20:30:47.101Z,6.41
2019-03-26T20:33:16.868Z,6.40
2019-03-26T20:35:46.759Z,6.43
2019-03-26T20:38:16.549Z,6.52
2019-03-26T20:40:46.340Z,6.49
2019-03-26T20:43:16.094Z,6.53
2019-03-26T20:45:45.886Z,6.44
2019-03-26T20:48:15.720Z,6.47
2019-03-26T20:50:45.564Z,6.46
2019-03-26T20:53:15.469Z,6.45
2019-03-26T20:55:54.218Z,6.30
2019-03-26T20:58:16.741Z,6.34
2019-03-26T21:00:46.579Z,6.34
2019-03-26T21:03:16.363Z,6.21
2019-03-26T21:05:46.161Z,6.30
2019-03-26T21:08:15.928Z,6.34
2019-03-26T21:10:45.732Z,6.29
2019-03-26T21:13:16.282Z,6.43
2019-03-26T21:15:56.554Z,6.45
2019-03-26T21:18:17.790Z,6.34
2019-03-26T21:20:47.560Z,6.27
2019-03-26T21:23:17.431Z,6.18
2019-03-26T21:25:47.200Z,6.11
2019-03-26T21:28:16.989Z,6.01
2019-03-26T21:30:46.762Z,6.02
2019-03-26T21:33:16.616Z,6.00
2019-03-26T21:35:46.384Z,6.02
2019-03-26T21:38:16.296Z,6.10
2019-03-26T21:40:47.985Z,6.08
2019-03-26T21:43:17.859Z,6.05
2019-03-26T21:45:47.606Z,6.07
2019-03-26T21:48:17.384Z,6.01
2019-03-26T21:50:47.141Z,6.10
2019-03-26T21:53:16.958Z,6.11
2019-03-26T21:55:46.808Z,6.20
2019-03-26T21:58:16.591Z,6.26
2019-03-26T22:00:46.358Z,6.30
2019-03-26T22:03:16.139Z,6.37
2019-03-26T22:05:47.942Z,6.34
2019-03-26T22:08:17.419Z,6.32
2019-03-26T22:10:47.389Z,6.30
2019-03-26T22:13:17.262Z,6.33
2019-03-26T22:15:47.425Z,6.34
2019-03-26T22:18:17.334Z,6.26
2019-03-26T22:20:47.311Z,6.24
2019-03-26T22:23:17.116Z,6.21
2019-03-26T22:25:47.054Z,6.26
2019-03-26T22:28:16.827Z,6.34
2019-03-26T22:30:46.593Z,6.37
2019-03-26T22:33:16.370Z,6.44
2019-03-26T22:35:46.125Z,6.42
2019-03-26T22:38:15.912Z,6.46
2019-03-26T22:40:45.742Z,6.55
2019-03-26T22:43:15.517Z,6.50
2019-03-26T22:45:45.274Z,6.42
2019-03-26T22:48:15.065Z,6.42
2019-03-26T22:50:44.818Z,6.39
2019-03-26T22:53:14.734Z,6.10
2019-03-26T22:55:44.607Z,6.03
2019-03-26T22:58:14.488Z,5.89
2019-03-26T23:00:44.241Z,5.96
2019-03-26T23:03:14.019Z,5.90
2019-03-26T23:05:43.774Z,5.74
2019-03-26T23:08:13.533Z,5.60
2019-03-26T23:10:43.430Z,5.44
2019-03-26T23:13:13.386Z,5.55
2019-03-26T23:15:43.277Z,5.41
2019-03-26T23:18:13.148Z,5.47
2019-03-26T23:20:43.151Z,5.27
2019-03-26T23:23:13.006Z,5.31
2019-03-26T23:25:42.787Z,5.29
2019-03-26T23:28:12.549Z,5.35
2019-03-26T23:30:42.356Z,5.23
2019-03-26T23:33:12.456Z,5.21
2019-03-26T23:35:42.252Z,5.23
2019-03-26T23:38:12.135Z,5.11
2019-03-26T23:40:42.011Z,5.11
2019-03-26T23:43:11.973Z,5.12
2019-03-26T23:45:41.820Z,5.09
2019-03-26T23:48:11.574Z,5.07
2019-03-26T23:50:41.468Z,5.01
2019-03-26T23:53:11.355Z,4.94
2019-03-26T23:55:41.142Z,5.02
2019-03-26T23:58:11.023Z,5.01
